Time;durP1;ratioP1;P1;durP2;ratioP2;P2;SDS_P1;SDS_P2;PMS_P1;PMS_P2;Temp;Humidity;BMP_temperature;BMP_pressure;BME280_temperature;BME280_humidity;BME280_pressure;Samples;Min_cycle;Max_cycle;Signal;HPM_P1;HPM_P2
2023/06/01 00:06:31;;;;;;;1999.90;999.90;;;18.40;99.10;;;;;;6742928;88;20229;-83
2023/06/01 00:16:32;;;;;;;1999.90;999.90;;;18.10;99.90;;;;;;6748148;88;20232;-83
2023/06/01 00:26:33;;;;;;;1999.90;999.90;;;17.90;99.90;;;;;;6748246;88;20320;-82
2023/06/01 00:36:35;;;;;;;1999.90;999.90;;;17.50;99.90;;;;;;6749007;88;20189;-82
2023/06/01 00:46:37;;;;;;;1999.90;999.90;;;17.20;99.90;;;;;;6743824;88;20206;-82
2023/06/01 00:56:37;;;;;;;1999.90;999.90;;;17.10;99.90;;;;;;6748852;88;20308;-83
2023/06/01 01:07:00;;;;;;;1999.90;999.90;;;17.00;99.90;;;;;;6744380;88;20169;-82
2023/06/01 01:17:32;;;;;;;1999.90;999.90;;;17.00;99.90;;;;;;6731240;88;20198;-82
2023/06/01 01:27:59;;;;;;;1999.90;999.90;;;16.80;99.90;;;;;;6730644;88;20177;-83
2023/06/01 01:38:00;;;;;;;1999.90;999.90;;;16.80;99.90;;;;;;6731311;88;20200;-83
2023/06/01 01:48:23;;;;;;;1999.90;999.90;;;16.60;99.90;;;;;;6732429;88;20162;-82
2023/06/01 01:58:26;;;;;;;1999.90;999.90;;;16.50;99.90;;;;;;6728021;77;20182;-78
2023/06/01 02:08:26;;;;;;;1999.90;999.90;;;16.40;99.90;;;;;;6677484;88;20191;-77
2023/06/01 02:18:29;;;;;;;1999.90;999.90;;;16.30;99.90;;;;;;6673251;88;20204;-77
2023/06/01 02:28:30;;;;;;;1999.90;999.90;;;16.10;99.90;;;;;;6681912;88;20319;-77
2023/06/01 02:38:30;;;;;;;1999.90;999.90;;;16.10;99.90;;;;;;6686341;88;20206;-77
2023/06/01 02:48:31;;;;;;;1999.90;999.90;;;15.90;99.90;;;;;;6706135;88;20184;-77
2023/06/01 02:58:31;;;;;;;1999.90;999.90;;;15.70;99.90;;;;;;6672385;88;20185;-78
2023/06/01 03:08:34;;;;;;;1999.90;999.90;;;15.50;99.90;;;;;;6679355;88;20227;-76
2023/06/01 03:18:34;;;;;;;1999.90;999.90;;;15.50;99.90;;;;;;6696869;88;20683;-77
2023/06/01 03:28:35;;;;;;;1999.90;999.90;;;15.40;99.90;;;;;;6694842;88;20211;-77
2023/06/01 03:38:35;;;;;;;1999.90;999.90;;;15.50;99.90;;;;;;6694821;88;20295;-77
2023/06/01 03:48:36;;;;;;;1999.90;999.90;;;15.40;99.90;;;;;;6670477;88;20209;-77
2023/06/01 03:58:36;;;;;;;1999.90;999.90;;;15.30;99.90;;;;;;6671516;88;20958;-77
2023/06/01 04:08:37;;;;;;;1999.90;999.90;;;15.00;99.90;;;;;;6675965;88;20223;-77
2023/06/01 04:18:38;;;;;;;1999.90;999.90;;;14.90;99.90;;;;;;6681543;88;20238;-77
2023/06/01 04:28:43;;;;;;;1999.90;999.90;;;14.90;99.90;;;;;;6673383;88;20512;-77
2023/06/01 04:38:44;;;;;;;1999.90;999.90;;;14.80;99.90;;;;;;6685699;88;20294;-77
2023/06/01 04:48:44;;;;;;;1999.90;999.90;;;14.90;99.90;;;;;;6691732;88;20658;-77
2023/06/01 04:58:47;;;;;;;1999.90;999.90;;;15.00;99.90;;;;;;6682836;88;20192;-77
2023/06/01 05:08:48;;;;;;;1999.90;999.90;;;14.90;99.90;;;;;;6691802;88;20198;-78
2023/06/01 05:18:49;;;;;;;1999.90;999.90;;;14.80;99.90;;;;;;6692612;88;20274;-78
2023/06/01 05:28:49;;;;;;;1999.90;999.90;;;14.80;99.90;;;;;;6715540;88;20205;-77
2023/06/01 05:38:50;;;;;;;1999.90;999.90;;;14.90;99.90;;;;;;6702063;88;20216;-78
2023/06/01 05:48:51;;;;;;;1999.90;999.90;;;15.10;99.90;;;;;;6679197;88;20248;-77
2023/06/01 05:58:53;;;;;;;1999.90;999.90;;;15.30;99.90;;;;;;6676043;88;20391;-78
2023/06/01 06:08:53;;;;;;;1999.90;999.90;;;16.10;99.90;;;;;;6672078;88;20195;-78
2023/06/01 06:18:53;;;;;;;1999.90;999.90;;;17.10;99.90;;;;;;6683556;88;20241;-78
2023/06/01 06:28:54;;;;;;;1999.90;999.90;;;17.60;99.90;;;;;;6695313;88;20187;-78
2023/06/01 06:38:55;;;;;;;1999.90;999.90;;;18.20;99.90;;;;;;6679321;88;20184;-77
2023/06/01 06:48:56;;;;;;;1999.90;999.90;;;18.60;99.90;;;;;;6679126;88;20233;-78
2023/06/01 06:58:57;;;;;;;1999.90;999.90;;;19.20;99.90;;;;;;6688648;88;20212;-78
2023/06/01 07:08:58;;;;;;;1999.90;999.90;;;19.60;99.90;;;;;;6692945;88;20202;-78
2023/06/01 07:18:58;;;;;;;1999.90;999.90;;;19.90;99.90;;;;;;6694751;88;20323;-78
2023/06/01 07:28:59;;;;;;;1999.90;999.90;;;20.10;99.90;;;;;;6672143;88;20192;-76
2023/06/01 07:39:00;;;;;;;1999.90;999.90;;;20.40;99.90;;;;;;6676531;88;20204;-78
2023/06/01 07:49:01;;;;;;;1999.90;999.90;;;21.00;99.90;;;;;;6665590;88;20246;-77
2023/06/01 07:59:02;;;;;;;1999.90;999.90;;;21.30;99.90;;;;;;6665188;88;20621;-77
2023/06/01 08:09:03;;;;;;;1999.90;999.90;;;21.60;99.90;;;;;;6691052;88;20203;-77
2023/06/01 08:19:03;;;;;;;1999.90;999.90;;;21.70;99.90;;;;;;6698837;88;20210;-79
2023/06/01 08:29:06;;;;;;;1999.90;999.90;;;22.00;99.90;;;;;;6680998;88;20203;-78
2023/06/01 08:39:22;;;;;;;1999.90;999.90;;;22.30;99.90;;;;;;6672741;89;20285;-77
2023/06/01 08:49:24;;;;;;;1999.90;999.90;;;22.60;99.90;;;;;;6691174;88;20701;-78
2023/06/01 08:59:25;;;;;;;1999.90;999.90;;;22.60;99.90;;;;;;6698077;88;20325;-78
2023/06/01 09:09:26;;;;;;;1999.90;999.90;;;23.10;99.90;;;;;;6667509;88;20565;-77
2023/06/01 09:19:44;;;;;;;1999.90;999.90;;;23.40;99.00;;;;;;6681907;88;20196;-78
2023/06/01 09:29:52;;;;;;;1999.90;999.90;;;24.20;97.80;;;;;;6697524;88;20206;-77
2023/06/01 09:39:53;;;;;;;1999.90;999.90;;;24.50;97.00;;;;;;6714895;88;20285;-76
2023/06/01 09:49:58;;;;;;;1999.90;999.90;;;23.80;96.90;;;;;;6693940;88;20727;-77
2023/06/01 10:00:09;;;;;;;1999.90;999.90;;;24.10;96.40;;;;;;6676181;88;20245;-77
2023/06/01 10:10:14;;;;;;;1999.90;999.90;;;24.80;95.10;;;;;;6672307;88;20184;-77
2023/06/01 10:20:15;;;;;;;1999.90;999.90;;;25.40;94.60;;;;;;6696708;88;20238;-77
2023/06/01 10:30:15;;;;;;;1999.90;999.90;;;25.90;93.20;;;;;;6697092;88;20226;-77
2023/06/01 10:40:16;;;;;;;1999.90;999.90;;;25.50;93.00;;;;;;6714939;88;20216;-77
2023/06/01 10:50:18;;;;;;;1999.90;999.90;;;25.30;92.30;;;;;;6677605;88;20191;-77
2023/06/01 11:00:27;;;;;;;1999.90;999.90;;;26.30;90.30;;;;;;6669485;89;20692;-77
2023/06/01 11:10:56;;;;;;;1999.90;999.90;;;26.60;88.20;;;;;;6671872;88;20189;-77
2023/06/01 11:20:58;;;;;;;1999.90;999.90;;;27.30;86.00;;;;;;6691950;88;20356;-77
2023/06/01 11:31:02;;;;;;;1999.90;999.90;;;27.50;84.80;;;;;;6665257;88;20207;-77
2023/06/01 11:41:03;;;;;;;1999.90;999.90;;;27.60;82.60;;;;;;6705616;88;20269;-76
2023/06/01 11:51:04;;;;;;;1999.90;999.90;;;28.00;80.90;;;;;;6691036;88;20184;-77
2023/06/01 12:01:07;;;;;;;1999.90;999.90;;;28.00;78.60;;;;;;6681093;88;20951;-78
2023/06/01 12:11:07;;;;;;;1999.90;999.90;;;27.70;77.90;;;;;;6681675;88;20791;-77
2023/06/01 12:21:11;;;;;;;1999.90;999.90;;;28.20;76.50;;;;;;6693795;88;20297;-77
2023/06/01 12:31:13;;;;;;;1999.90;999.90;;;28.90;76.60;;;;;;6684742;88;20273;-78
2023/06/01 12:41:14;;;;;;;1999.90;999.90;;;29.30;76.10;;;;;;6678409;88;20209;-78
2023/06/01 12:51:15;;;;;;;1999.90;999.90;;;29.20;74.70;;;;;;6688853;88;20196;-77
2023/06/01 13:01:16;;;;;;;1999.90;999.90;;;28.90;76.30;;;;;;6689060;88;20333;-77
2023/06/01 13:11:17;;;;;;;1999.90;999.90;;;29.50;75.40;;;;;;6675207;88;20203;-77
2023/06/01 13:21:18;;;;;;;1999.90;999.90;;;28.60;73.80;;;;;;6691515;88;20372;-77
2023/06/01 13:31:19;;;;;;;1999.90;999.90;;;29.10;71.80;;;;;;6678024;88;20358;-80
2023/06/01 13:41:20;;;;;;;1999.90;999.90;;;29.20;72.40;;;;;;6696974;88;20646;-78
2023/06/01 13:51:22;;;;;;;1999.90;999.90;;;29.20;70.00;;;;;;6674074;88;20222;-77
2023/06/01 14:11:27;;;;;;;1999.90;999.90;;;29.30;70.00;;;;;;6671186;89;20211;-79
2023/06/01 14:21:28;;;;;;;1999.90;999.90;;;28.80;70.90;;;;;;6664566;89;20208;-79
2023/06/01 14:31:29;;;;;;;1999.90;999.90;;;28.60;70.30;;;;;;6670736;89;20176;-82
2023/06/01 14:41:30;;;;;;;1999.90;999.90;;;28.50;67.70;;;;;;6671235;89;20225;-80
2023/06/01 14:51:32;;;;;;;1999.90;999.90;;;28.80;69.60;;;;;;6678058;88;20210;-79
2023/06/01 15:01:33;;;;;;;1999.90;999.90;;;28.30;68.90;;;;;;6667958;88;20538;-78
2023/06/01 15:11:34;;;;;;;1999.90;999.90;;;28.10;69.60;;;;;;6646980;89;20203;-80
2023/06/01 15:21:34;;;;;;;1999.90;999.90;;;28.00;68.20;;;;;;6717767;77;20716;-80
2023/06/01 15:31:35;;;;;;;1999.90;999.90;;;27.60;69.00;;;;;;6721599;87;20209;-81
2023/06/01 15:41:35;;;;;;;1999.90;999.90;;;27.80;69.00;;;;;;6773800;87;20214;-79
2023/06/01 15:51:36;;;;;;;1999.90;999.90;;;27.80;68.50;;;;;;6754857;88;20630;-77
2023/06/01 16:01:37;;;;;;;1999.90;999.90;;;28.00;70.20;;;;;;6782024;87;20192;-79
2023/06/01 16:11:37;;;;;;;1999.90;999.90;;;28.00;71.00;;;;;;6773068;87;20225;-77
2023/06/01 16:21:38;;;;;;;1999.90;999.90;;;27.70;71.20;;;;;;6764502;87;20286;-77
2023/06/01 16:31:38;;;;;;;1999.90;999.90;;;26.60;72.80;;;;;;6765733;87;20220;-81
2023/06/01 16:41:39;;;;;;;1999.90;999.90;;;25.60;73.90;;;;;;6762422;87;20340;-77
2023/06/01 16:51:40;;;;;;;1999.90;999.90;;;25.50;74.30;;;;;;6765390;87;20306;-79
2023/06/01 17:01:41;;;;;;;1999.90;999.90;;;24.90;73.50;;;;;;6768090;87;20186;-78
2023/06/01 17:11:42;;;;;;;1999.90;999.90;;;24.30;75.40;;;;;;6774417;87;20305;-81
2023/06/01 17:21:42;;;;;;;1999.90;999.90;;;23.90;77.00;;;;;;6773206;87;20281;-83
2023/06/01 17:31:43;;;;;;;1999.90;999.90;;;23.40;78.60;;;;;;6771535;87;20297;-81
2023/06/01 17:41:43;;;;;;;1999.90;999.90;;;23.00;79.10;;;;;;6792489;87;20243;-80
2023/06/01 17:51:44;;;;;;;1999.90;999.90;;;22.80;79.50;;;;;;6787423;87;20210;-80
2023/06/01 18:01:45;;;;;;;1999.90;999.90;;;22.40;81.70;;;;;;6773943;87;20690;-79
2023/06/01 18:11:45;;;;;;;1999.90;999.90;;;22.20;82.80;;;;;;6761452;87;20206;-78
2023/06/01 18:21:46;;;;;;;1999.90;999.90;;;22.30;81.80;;;;;;6762170;87;20193;-78
2023/06/01 18:31:46;;;;;;;1999.90;999.90;;;22.10;82.60;;;;;;6764192;87;20235;-78
2023/06/01 18:41:47;;;;;;;1999.90;999.90;;;21.60;84.30;;;;;;6761673;87;21079;-77
2023/06/01 18:51:53;;;;;;;1999.90;999.90;;;21.40;85.50;;;;;;6764316;87;20299;-78
2023/06/01 19:01:53;;;;;;;1999.90;999.90;;;21.10;88.10;;;;;;6761632;87;20214;-77
2023/06/01 19:11:54;;;;;;;1999.90;999.90;;;20.60;88.80;;;;;;6762492;87;20206;-77
2023/06/01 19:21:57;;;;;;;1999.90;999.90;;;20.30;88.90;;;;;;6760102;87;20622;-77
2023/06/01 19:31:58;;;;;;;1999.90;999.90;;;20.00;89.10;;;;;;6763728;87;20194;-78
2023/06/01 19:42:07;;;;;;;1999.90;999.90;;;19.80;91.50;;;;;;6751364;88;20187;-79
2023/06/01 19:52:10;;;;;;;1999.90;999.90;;;19.50;92.20;;;;;;6752384;87;20186;-78
2023/06/01 20:02:38;;;;;;;1999.90;999.90;;;19.30;92.70;;;;;;6751166;77;20345;-78
2023/06/01 20:12:39;;;;;;;1999.90;999.90;;;19.00;93.40;;;;;;6760735;87;20219;-79
2023/06/01 20:22:39;;;;;;;1999.90;999.90;;;18.80;94.00;;;;;;6754582;88;20248;-78
2023/06/01 20:32:40;;;;;;;1999.90;999.90;;;18.70;95.30;;;;;;6764649;87;20168;-78
2023/06/01 20:42:40;;;;;;;1999.90;999.90;;;18.50;96.80;;;;;;6767123;87;20218;-78
2023/06/01 20:52:41;;;;;;;1999.90;999.90;;;18.20;99.40;;;;;;6759225;88;20587;-79
2023/06/01 21:02:41;;;;;;;1999.90;999.90;;;18.00;99.90;;;;;;6748884;88;20651;-79
2023/06/01 21:12:48;;;;;;;1999.90;999.90;;;17.60;99.90;;;;;;6720550;87;20204;-79
2023/06/01 21:22:54;;;;;;;1999.90;999.90;;;17.40;99.90;;;;;;6693304;87;20204;-78
2023/06/01 21:32:57;;;;;;;1999.90;999.90;;;16.90;99.90;;;;;;6684527;88;20308;-78
2023/06/01 21:43:02;;;;;;;1999.90;999.90;;;16.60;99.90;;;;;;6694185;88;20202;-79
2023/06/01 21:53:03;;;;;;;1999.90;999.90;;;16.40;99.90;;;;;;6716234;88;20229;-79
2023/06/01 22:03:07;;;;;;;1999.90;999.90;;;16.20;99.90;;;;;;6711236;87;20239;-78
2023/06/01 22:13:08;;;;;;;1999.90;999.90;;;16.10;99.90;;;;;;6704757;87;20191;-78
2023/06/01 22:23:11;;;;;;;1999.90;999.90;;;16.00;99.90;;;;;;6694826;87;20253;-79
2023/06/01 22:33:12;;;;;;;1999.90;999.90;;;15.80;99.90;;;;;;6710488;87;20233;-78
2023/06/01 22:43:14;;;;;;;1999.90;999.90;;;15.70;99.90;;;;;;6708100;87;20164;-79
2023/06/01 22:53:17;;;;;;;1999.90;999.90;;;15.60;99.90;;;;;;6698067;87;20179;-78
2023/06/01 23:03:18;;;;;;;1999.90;999.90;;;15.60;99.90;;;;;;6722891;87;20216;-78
2023/06/01 23:13:27;;;;;;;1999.90;999.90;;;15.50;99.90;;;;;;6713524;87;20207;-79
2023/06/01 23:23:30;;;;;;;1999.90;999.90;;;15.50;99.90;;;;;;6692661;87;20809;-78
2023/06/01 23:33:31;;;;;;;1999.90;999.90;;;15.30;99.90;;;;;;6695739;87;20313;-77
2023/06/01 23:43:32;;;;;;;1999.90;999.90;;;15.30;99.90;;;;;;6718727;87;20217;-78
2023/06/01 23:53:34;;;;;;;1999.90;999.90;;;15.30;99.90;;;;;;6693889;88;20226;-78
